createdAt,value
2023-05-08T00:02:32.722Z,86.21
2023-05-08T00:05:42.029Z,86.11
2023-05-08T00:08:50.010Z,86.11
2023-05-08T00:11:57.580Z,86.25
2023-05-08T00:15:06.274Z,86.35
2023-05-08T00:18:14.163Z,86.46
2023-05-08T00:21:21.780Z,86.66
2023-05-08T00:24:29.217Z,86.87
2023-05-08T00:27:37.942Z,87.12
2023-05-08T00:30:45.898Z,87.42
2023-05-08T00:33:53.340Z,87.52
2023-05-08T00:37:02.214Z,87.73
2023-05-08T00:40:10.621Z,87.84
2023-05-08T00:43:18.175Z,87.98
2023-05-08T00:46:20.087Z,88.08
2023-05-08T00:49:27.564Z,88.29
2023-05-08T00:52:34.944Z,88.39
2023-05-08T00:55:43.991Z,88.59
2023-05-08T00:58:51.648Z,88.39
2023-05-08T01:01:59.181Z,88.49
2023-05-08T01:05:06.079Z,88.64
2023-05-08T01:08:15.506Z,88.49
2023-05-08T01:11:23.526Z,88.64
2023-05-08T01:14:31.275Z,88.64
2023-05-08T01:17:40.253Z,88.64
2023-05-08T01:20:47.719Z,88.74
2023-05-08T01:23:55.457Z,88.84
2023-05-08T01:27:04.578Z,88.74
2023-05-08T01:30:12.649Z,88.74
2023-05-08T01:33:20.818Z,88.95
2023-05-08T01:36:29.784Z,88.74
2023-05-08T01:39:38.010Z,88.84
2023-05-08T01:42:45.519Z,88.74
2023-05-08T01:45:52.901Z,88.53
2023-05-08T01:49:01.921Z,88.47
2023-05-08T01:52:09.984Z,88.37
2023-05-08T01:55:17.483Z,88.17
2023-05-08T01:58:26.306Z,88.06
2023-05-08T02:01:34.091Z,87.81
2023-05-08T02:04:41.056Z,87.71
2023-05-08T02:07:50.695Z,87.85
2023-05-08T02:10:58.287Z,87.85
2023-05-08T02:14:06.614Z,87.85
2023-05-08T02:17:15.323Z,87.75
2023-05-08T02:20:23.510Z,87.85
2023-05-08T02:23:31.402Z,88.06
2023-05-08T02:26:39.348Z,88.26
2023-05-08T02:29:47.817Z,88.37
2023-05-08T02:32:57.524Z,88.47
2023-05-08T02:36:06.485Z,88.72
2023-05-08T02:39:15.953Z,88.92
2023-05-08T02:42:22.922Z,89.03
2023-05-08T02:45:31.258Z,89.13
2023-05-08T02:48:40.217Z,88.92
2023-05-08T02:51:47.571Z,88.82
2023-05-08T02:54:55.044Z,88.92
2023-05-08T02:58:04.504Z,88.82
2023-05-08T03:01:11.649Z,88.82
2023-05-08T03:04:19.395Z,88.72
2023-05-08T03:07:28.721Z,88.72
2023-05-08T03:10:35.648Z,88.72
2023-05-08T03:13:43.538Z,88.62
2023-05-08T03:16:50.678Z,88.51
2023-05-08T03:19:59.252Z,88.62
2023-05-08T03:21:47.596Z,88.65
2023-05-08T03:24:54.421Z,88.76
2023-05-08T03:28:04.396Z,88.76
2023-05-08T03:31:11.896Z,88.86
2023-05-08T03:34:19.117Z,88.86
2023-05-08T03:37:26.688Z,88.86
2023-05-08T03:40:35.568Z,88.86
2023-05-08T03:43:43.100Z,88.86
2023-05-08T03:46:50.325Z,88.86
2023-05-08T03:50:00.041Z,88.96
2023-05-08T03:53:07.580Z,88.76
2023-05-08T03:56:15.264Z,88.96
2023-05-08T03:59:24.055Z,88.96
2023-05-08T04:02:31.685Z,88.82
2023-05-08T04:05:39.901Z,88.51
2023-05-08T04:08:49.293Z,88.31
2023-05-08T04:11:56.290Z,87.96
2023-05-08T04:15:04.138Z,87.65
2023-05-08T04:18:11.935Z,87.54
2023-05-08T04:21:21.150Z,87.34
2023-05-08T04:24:28.770Z,87.24
2023-05-08T04:27:37.151Z,86.68
2023-05-08T04:30:45.464Z,86.58
2023-05-08T04:33:53.182Z,86.47
2023-05-08T04:37:01.370Z,86.16
2023-05-08T04:40:10.175Z,86.02
2023-05-08T04:43:17.127Z,85.61
2023-05-08T04:46:25.263Z,85.71
2023-05-08T04:49:34.024Z,85.41
2023-05-08T04:52:41.845Z,85.20
2023-05-08T04:55:49.976Z,84.95
2023-05-08T04:58:58.366Z,84.34
2023-05-08T05:02:05.695Z,84.20
2023-05-08T05:05:13.730Z,83.48
2023-05-08T05:08:21.385Z,83.78
2023-05-08T05:11:31.338Z,83.68
2023-05-08T05:14:38.752Z,83.44
2023-05-08T05:17:46.572Z,83.23
2023-05-08T05:20:55.940Z,83.23
2023-05-08T05:24:03.762Z,82.92
2023-05-08T05:27:10.871Z,82.89
2023-05-08T05:30:19.712Z,82.37
2023-05-08T05:33:27.437Z,82.17
2023-05-08T05:36:34.519Z,82.27
2023-05-08T05:39:44.545Z,82.75
2023-05-08T05:42:52.966Z,82.33
2023-05-08T05:46:00.282Z,82.03
2023-05-08T05:49:07.646Z,81.16
2023-05-08T05:52:17.451Z,81.27
2023-05-08T05:55:25.219Z,81.02
2023-05-08T05:58:32.996Z,81.23
2023-05-08T06:01:41.689Z,80.86
2023-05-08T06:04:49.560Z,81.16
2023-05-08T06:07:57.432Z,81.54
2023-05-08T06:11:06.612Z,81.43
2023-05-08T06:14:14.125Z,80.82
2023-05-08T06:17:21.920Z,80.92
2023-05-08T06:20:31.254Z,80.62
2023-05-08T06:23:38.592Z,80.62
2023-05-08T06:26:46.067Z,80.47
2023-05-08T06:29:54.022Z,80.47
2023-05-08T06:33:02.761Z,80.37
2023-05-08T06:36:11.122Z,80.27
2023-05-08T06:39:18.439Z,80.58
2023-05-08T06:42:27.901Z,80.03
2023-05-08T06:45:35.446Z,80.03
2023-05-08T06:48:43.072Z,79.82
2023-05-08T06:51:52.432Z,79.93
2023-05-08T06:55:00.125Z,79.62
2023-05-08T06:58:08.825Z,80.54
2023-05-08T07:01:18.139Z,80.13
2023-05-08T07:04:25.413Z,79.58
2023-05-08T07:07:32.930Z,81.08
2023-05-08T07:10:40.260Z,79.20
2023-05-08T07:13:49.629Z,78.96
2023-05-08T07:16:57.394Z,78.24
2023-05-08T07:20:04.601Z,76.26
2023-05-08T07:23:14.414Z,76.88
2023-05-08T07:26:21.667Z,76.74
2023-05-08T07:29:29.356Z,75.71
2023-05-08T07:32:38.762Z,75.58
2023-05-08T07:35:46.376Z,75.37
2023-05-08T07:38:54.190Z,76.09
2023-05-08T07:42:03.138Z,75.75
2023-05-08T07:45:11.906Z,75.41
2023-05-08T07:48:19.581Z,74.63
2023-05-08T07:51:28.636Z,74.63
2023-05-08T07:54:35.888Z,74.59
2023-05-08T07:57:43.600Z,74.35
2023-05-08T08:00:50.704Z,74.45
2023-05-08T08:04:00.299Z,74.76
2023-05-08T08:07:08.694Z,73.91
2023-05-08T08:10:16.219Z,73.57
2023-05-08T08:13:25.730Z,73.36
2023-05-08T08:16:33.214Z,72.96
2023-05-08T08:19:40.870Z,73.06
2023-05-08T08:22:50.197Z,71.70
2023-05-08T08:25:58.634Z,71.02
2023-05-08T08:29:07.032Z,69.36
2023-05-08T08:32:15.970Z,68.52
2023-05-08T08:35:24.155Z,67.60
2023-05-08T08:38:32.160Z,67.16
2023-05-08T08:41:40.514Z,65.61
2023-05-08T08:44:49.833Z,65.41
2023-05-08T08:47:56.898Z,65.27
2023-05-08T08:51:04.950Z,65.48
2023-05-08T08:54:13.713Z,65.68
2023-05-08T08:57:21.489Z,64.97
2023-05-08T09:00:28.993Z,65.37
2023-05-08T09:03:38.281Z,65.68
2023-05-08T09:06:45.348Z,65.14
2023-05-08T09:09:53.250Z,67.44
2023-05-08T09:13:02.062Z,64.91
2023-05-08T09:16:11.352Z,65.89
2023-05-08T09:19:21.642Z,65.15
2023-05-08T09:22:19.730Z,63.43
2023-05-08T09:25:28.951Z,64.34
2023-05-08T09:28:36.408Z,63.70
2023-05-08T09:31:44.651Z,64.41
2023-05-08T09:34:53.676Z,64.72
2023-05-08T09:38:01.752Z,63.57
2023-05-08T09:41:09.549Z,64.31
2023-05-08T09:44:18.300Z,64.61
2023-05-08T09:47:26.125Z,63.50
2023-05-08T09:50:33.224Z,62.46
2023-05-08T09:53:42.414Z,61.72
2023-05-08T09:56:50.599Z,63.24
2023-05-08T09:59:57.701Z,60.58
2023-05-08T10:03:07.377Z,60.98
2023-05-08T10:06:15.574Z,61.96
2023-05-08T10:09:23.709Z,61.69
2023-05-08T10:12:31.168Z,60.85
2023-05-08T10:15:41.201Z,60.32
2023-05-08T10:18:48.349Z,59.31
2023-05-08T10:21:55.848Z,59.81
2023-05-08T10:25:04.760Z,58.58
2023-05-08T10:28:12.675Z,58.27
2023-05-08T10:31:20.639Z,58.14
2023-05-08T10:34:29.407Z,60.09
2023-05-08T10:37:37.191Z,59.58
2023-05-08T10:40:44.322Z,58.65
2023-05-08T10:43:53.672Z,59.15
2023-05-08T10:47:01.200Z,58.82
2023-05-08T10:50:08.844Z,58.42
2023-05-08T10:53:16.313Z,58.49
2023-05-08T10:56:25.663Z,59.60
2023-05-08T10:59:33.734Z,59.20
2023-05-08T11:02:41.535Z,60.00
2023-05-08T11:05:13.277Z,59.09
2023-05-08T11:08:20.620Z,59.37
2023-05-08T11:11:28.499Z,59.17
2023-05-08T11:14:37.491Z,57.86
2023-05-08T11:17:44.671Z,58.26
2023-05-08T11:20:52.514Z,59.04
2023-05-08T11:24:00.519Z,56.47
2023-05-08T11:27:09.440Z,55.33
2023-05-08T11:30:17.415Z,54.30
2023-05-08T11:33:25.361Z,54.15
2023-05-08T11:36:34.443Z,56.47
2023-05-08T11:39:42.093Z,54.20
2023-05-08T11:42:49.836Z,53.80
2023-05-08T11:45:59.468Z,54.30
2023-05-08T11:49:06.588Z,53.90
2023-05-08T11:52:14.287Z,54.68
2023-05-08T11:55:23.318Z,55.35
2023-05-08T11:58:32.012Z,54.45
2023-05-08T12:01:40.260Z,53.82
2023-05-08T12:04:48.249Z,53.00
2023-05-08T12:07:57.108Z,53.00
2023-05-08T12:11:04.912Z,52.32
2023-05-08T12:14:13.082Z,51.64
2023-05-08T12:17:22.038Z,54.05
2023-05-08T12:20:31.036Z,52.72
2023-05-08T12:23:39.367Z,52.51
2023-05-08T12:26:48.110Z,51.69
2023-05-08T12:29:56.052Z,51.97
2023-05-08T12:33:03.906Z,52.59
2023-05-08T12:36:12.877Z,51.67
2023-05-08T12:39:20.330Z,50.81
2023-05-08T12:42:28.541Z,49.23
2023-05-08T12:45:37.556Z,49.36
2023-05-08T12:48:45.027Z,50.56
2023-05-08T12:51:53.837Z,49.71
2023-05-08T12:55:02.063Z,50.71
2023-05-08T12:58:14.720Z,50.62
2023-05-08T13:01:12.499Z,49.87
2023-05-08T13:04:20.495Z,48.86
2023-05-08T13:07:29.876Z,50.07
2023-05-08T13:10:37.094Z,50.81
2023-05-08T13:13:45.430Z,50.59
2023-05-08T13:16:54.381Z,49.66
2023-05-08T13:20:03.448Z,50.16
2023-05-08T13:23:02.402Z,47.94
2023-05-08T13:26:12.044Z,47.94
2023-05-08T13:29:19.883Z,48.76
2023-05-08T13:32:27.149Z,48.64
2023-05-08T13:35:35.536Z,48.34
2023-05-08T13:38:45.409Z,47.84
2023-05-08T13:41:52.715Z,48.44
2023-05-08T13:45:00.867Z,48.94
2023-05-08T13:48:09.906Z,47.92
2023-05-08T13:51:18.119Z,48.26
2023-05-08T13:54:25.650Z,48.49
2023-05-08T13:57:34.885Z,47.54
2023-05-08T14:00:42.326Z,48.32
2023-05-08T14:03:50.606Z,45.72
2023-05-08T14:07:00.035Z,46.51
2023-05-08T14:10:07.959Z,47.61
2023-05-08T14:13:16.002Z,47.74
2023-05-08T14:16:23.905Z,47.84
2023-05-08T14:19:33.153Z,47.94
2023-05-08T14:22:41.199Z,46.94
2023-05-08T14:25:48.790Z,48.24
2023-05-08T14:28:58.216Z,46.72
2023-05-08T14:32:05.677Z,45.89
2023-05-08T14:35:13.306Z,45.67
2023-05-08T14:38:22.998Z,43.79
2023-05-08T14:41:30.738Z,43.40
2023-05-08T14:44:37.955Z,43.91
2023-05-08T14:47:47.677Z,46.30
2023-05-08T14:50:55.049Z,45.07
2023-05-08T14:54:03.318Z,46.00
2023-05-08T14:57:12.419Z,46.37
2023-05-08T15:00:20.261Z,45.67
2023-05-08T15:03:27.997Z,45.67
2023-05-08T15:06:35.471Z,45.87
2023-05-08T15:09:44.561Z,45.72
2023-05-08T15:12:52.115Z,46.74
2023-05-08T15:16:00.385Z,46.62
2023-05-08T15:19:09.708Z,47.22
2023-05-08T15:22:17.863Z,46.22
2023-05-08T15:25:25.321Z,46.14
2023-05-08T15:28:34.968Z,46.72
2023-05-08T15:31:42.520Z,46.31
2023-05-08T15:34:50.152Z,47.02
2023-05-08T15:37:59.876Z,46.81
2023-05-08T15:41:07.773Z,46.12
2023-05-08T15:44:15.116Z,46.94
2023-05-08T15:47:22.993Z,46.76
2023-05-08T15:50:31.948Z,47.24
2023-05-08T15:53:39.418Z,46.34
2023-05-08T15:56:47.186Z,45.34
2023-05-08T15:59:56.528Z,45.54
2023-05-08T16:03:03.596Z,45.54
2023-05-08T16:06:11.350Z,45.74
2023-05-08T16:09:20.745Z,45.34
2023-05-08T16:12:27.649Z,45.24
2023-05-08T16:15:35.815Z,44.16
2023-05-08T16:18:44.232Z,43.55
2023-05-08T16:21:51.826Z,43.96
2023-05-08T16:24:59.864Z,44.16
2023-05-08T16:28:07.346Z,44.35
2023-05-08T16:31:16.259Z,44.98
2023-05-08T16:34:24.437Z,44.28
2023-05-08T16:37:32.198Z,45.60
2023-05-08T16:40:41.107Z,45.90
2023-05-08T16:43:48.600Z,45.92
2023-05-08T16:46:56.839Z,46.04
2023-05-08T16:50:05.613Z,46.25
2023-05-08T16:53:13.994Z,47.15
2023-05-08T16:56:21.708Z,47.15
2023-05-08T16:59:31.669Z,47.17
2023-05-08T17:02:39.217Z,47.47
2023-05-08T17:05:47.044Z,47.77
2023-05-08T17:08:56.498Z,47.80
2023-05-08T17:12:03.789Z,47.09
2023-05-08T17:15:11.364Z,47.22
2023-05-08T17:18:18.725Z,47.52
2023-05-08T17:21:27.650Z,47.64
2023-05-08T17:24:35.195Z,47.97
2023-05-08T17:27:43.392Z,48.57
2023-05-08T17:30:51.868Z,48.97
2023-05-08T17:34:00.051Z,49.40
2023-05-08T17:37:07.709Z,50.20
2023-05-08T17:40:17.437Z,49.60
2023-05-08T17:43:24.930Z,50.43
2023-05-08T17:46:32.308Z,50.83
2023-05-08T17:49:41.168Z,50.76
2023-05-08T17:52:48.703Z,50.76
2023-05-08T17:55:56.640Z,51.28
2023-05-08T17:59:04.120Z,51.68
2023-05-08T18:02:14.060Z,51.61
2023-05-08T18:05:21.682Z,52.22
2023-05-08T18:08:29.922Z,52.14
2023-05-08T18:11:38.709Z,52.74
2023-05-08T18:14:47.271Z,52.36
2023-05-08T18:17:54.994Z,52.76
2023-05-08T18:21:04.524Z,52.89
2023-05-08T18:21:58.415Z,52.89
2023-05-08T18:25:06.015Z,53.50
2023-05-08T18:28:14.528Z,53.42
2023-05-08T18:31:23.482Z,53.52
2023-05-08T18:34:30.532Z,54.16
2023-05-08T18:37:38.366Z,53.96
2023-05-08T18:40:47.746Z,54.58
2023-05-08T18:43:55.865Z,54.69
2023-05-08T18:47:03.437Z,54.91
2023-05-08T18:50:11.888Z,55.75
2023-05-08T18:53:20.890Z,55.75
2023-05-08T18:56:28.581Z,56.28
2023-05-08T18:59:37.489Z,56.28
2023-05-08T19:02:46.145Z,56.48
2023-05-08T19:05:53.891Z,56.82
2023-05-08T19:09:01.905Z,56.61
2023-05-08T19:12:11.273Z,56.61
2023-05-08T19:15:19.605Z,57.04
2023-05-08T19:18:27.362Z,56.84
2023-05-08T19:21:36.495Z,56.54
2023-05-08T19:24:43.840Z,56.77
2023-05-08T19:27:51.384Z,56.77
2023-05-08T19:31:00.299Z,56.97
2023-05-08T19:34:07.661Z,56.90
2023-05-08T19:37:15.512Z,57.10
2023-05-08T19:40:23.212Z,56.90
2023-05-08T19:43:33.717Z,57.30
2023-05-08T19:46:41.711Z,56.82
2023-05-08T19:49:49.874Z,56.52
2023-05-08T19:52:59.409Z,55.50
2023-05-08T19:56:07.454Z,55.83
2023-05-08T19:59:15.338Z,54.92
2023-05-08T20:02:25.242Z,54.61
2023-05-08T20:05:33.320Z,54.51
2023-05-08T20:08:40.610Z,53.91
2023-05-08T20:11:49.624Z,53.83
2023-05-08T20:14:57.393Z,53.93
2023-05-08T20:18:05.227Z,53.32
2023-05-08T20:21:13.445Z,53.42
2023-05-08T20:24:22.490Z,53.12
2023-05-08T20:27:30.576Z,53.24
2023-05-08T20:30:38.451Z,53.04
2023-05-08T20:33:48.032Z,52.84
2023-05-08T20:36:55.712Z,52.73
2023-05-08T20:40:03.890Z,52.76
2023-05-08T20:43:12.970Z,52.66
2023-05-08T20:46:20.957Z,52.76
2023-05-08T20:49:29.368Z,53.17
2023-05-08T20:52:39.914Z,53.27
2023-05-08T20:55:39.078Z,53.09
2023-05-08T20:58:46.749Z,53.39
2023-05-08T21:01:54.553Z,53.59
2023-05-08T21:05:03.836Z,53.90
2023-05-08T21:08:12.329Z,53.93
2023-05-08T21:11:20.262Z,54.24
2023-05-08T21:14:29.321Z,54.44
2023-05-08T21:17:37.724Z,54.64
2023-05-08T21:20:45.731Z,54.87
2023-05-08T21:23:54.447Z,54.97
2023-05-08T21:27:02.441Z,55.18
2023-05-08T21:30:09.856Z,55.51
2023-05-08T21:33:18.750Z,55.51
2023-05-08T21:36:26.773Z,56.12
2023-05-08T21:39:34.040Z,56.35
2023-05-08T21:42:44.522Z,56.65
2023-05-08T21:45:52.797Z,57.37
2023-05-08T21:49:01.232Z,57.90
2023-05-08T21:52:08.239Z,58.41
2023-05-08T21:55:17.664Z,59.05
2023-05-08T21:58:25.753Z,59.66
2023-05-08T22:01:33.542Z,60.21
2023-05-08T22:04:43.015Z,60.92
2023-05-08T22:07:51.354Z,61.43
2023-05-08T22:10:58.994Z,61.97
2023-05-08T22:14:07.995Z,62.07
2023-05-08T22:17:15.322Z,62.20
2023-05-08T22:20:23.421Z,62.10
2023-05-08T22:23:33.487Z,62.40
2023-05-08T22:26:41.715Z,62.40
2023-05-08T22:29:48.922Z,62.40
2023-05-08T22:32:56.834Z,62.63
2023-05-08T22:36:05.804Z,62.63
2023-05-08T22:39:13.615Z,62.74
2023-05-08T22:42:22.140Z,62.84
2023-05-08T22:45:31.249Z,62.84
2023-05-08T22:48:38.974Z,62.98
2023-05-08T22:51:47.751Z,63.28
2023-05-08T22:54:56.640Z,63.39
2023-05-08T22:58:04.901Z,63.69
2023-05-08T23:01:12.218Z,63.69
2023-05-08T23:04:21.605Z,63.59
2023-05-08T23:07:29.658Z,63.59
2023-05-08T23:10:37.840Z,63.59
2023-05-08T23:13:46.718Z,63.69
2023-05-08T23:16:54.861Z,63.39
2023-05-08T23:20:02.809Z,63.59
2023-05-08T23:23:10.444Z,63.59
2023-05-08T23:26:19.572Z,63.79
2023-05-08T23:29:27.329Z,64.00
2023-05-08T23:32:34.787Z,64.51
2023-05-08T23:35:43.682Z,64.81
2023-05-08T23:38:52.603Z,65.25
2023-05-08T23:42:00.438Z,65.66
2023-05-08T23:45:09.763Z,66.07
2023-05-08T23:48:18.088Z,66.48
2023-05-08T23:51:25.367Z,66.69
2023-05-08T23:54:34.358Z,66.89
2023-05-08T23:57:43.002Z,67.10
